x

Sand Key, Fl (sanf1) Weather Station

7:50pm - Thu 25th Dec 2014 All times are CST. -5 hours from GMT.

  • Wind
    24mph, 28mph gusts
  • Air Temp 71°f
  • Sea Pressure 1020.9mb
  • Sand Key, Fl
  • Sand Key, Fl

More Historic Weather Station data

Upgrade to MSW Pro to gain access to the past 30 days of data for over 8000 Wavebouys and Weather Stations around the globe.

Join Pro

Comparision Forecast

View Surf forecast
   
Thu 12/25 7:50pm 24 28 mph 1020.9mb 71f
6:50pm 25 29 mph 1020.2mb 71f
5:50pm 24 26 mph 1019.9mb 70f
4:50pm 23 28 mph 1019.8mb 70f
3:50pm 22 25 mph 1019.5mb 70f
2:50pm 23 25 mph 1019.5mb 70f
1:50pm 22 24 mph 1019.7mb 70f
12:50pm 23 28 mph 1020.4mb 71f
11:50am 24 28 mph 1020.6mb 70f
10:50am 23 25 mph 1021mb 71f
9:50am 17 21 mph 1021.4mb 71f
8:50am 20 23 mph 1020.1mb 71f
7:50am 21 24 mph 1019.7mb 71f
6:50am 21 23 mph 1018.3mb 71f
5:50am 20 22 mph 1017.8mb 69f
4:50am 23 28 mph 1017.2mb 68f
3:50am 29 33 mph 1016.5mb 70f
2:50am 26 30 mph 1016.2mb 72f
1:50am 17 21 mph 1015.7mb 79f
12:50am 21 24 mph 1015.3mb 78f
Wed 12/24 11:50pm 16 17 mph 1015.4mb 79f
10:50pm 17 22 mph 1015.3mb 78f
9:50pm 16 23 mph 1015.2mb 79f
8:50pm 21 30 mph 1014.8mb 75f
7:50pm 11 13 mph 1014.4mb 78f
6:50pm 11 14 mph 1014mb 78f
5:50pm 13 14 mph 1013.2mb 77f
4:50pm 9 10 mph 1013mb 77f
3:50pm 10 11 mph 1012.8mb 76f
2:50pm 9 11 mph 1012.6mb 76f
1:50pm 20 23 mph 1013.3mb 77f
12:50pm 18 22 mph 1013.3mb 78f
11:50am 18 22 mph 1013.7mb 78f
10:50am 20 22 mph 1014.4mb 78f
9:50am 20 22 mph 1014.2mb 78f
8:50am 18 21 mph 1013.5mb 78f
7:50am 20 23 mph 1013mb 78f
6:50am 17 21 mph 1012.8mb 78f
5:50am 18 21 mph 1012.2mb 78f
4:50am 15 17 mph 1012mb 78f
3:50am 14 15 mph 1012.2mb 78f
2:50am 15 18 mph 1012.4mb 78f
1:50am 14 16 mph 1012.7mb 78f
12:50am 16 18 mph 1012.7mb 79f
Tue 12/23 11:50pm 23 25 mph 1012.6mb 79f
10:50pm 22 25 mph 1012.7mb 79f
9:50pm 24 26 mph 1012.6mb 78f
8:50pm 22 24 mph 1012.3mb 79f
7:50pm 22 25 mph 1012.1mb 78f
6:50pm 21 24 mph 1011.8mb 78f
5:50pm 21 23 mph 1011.4mb 78f
4:50pm 21 23 mph 1011.5mb 79f
3:50pm 20 22 mph 1011.6mb 79f
2:50pm 20 22 mph 1011.7mb 78f
1:50pm 21 23 mph 1012mb 78f
12:50pm 22 24 mph 1013.1mb 78f
11:50am 22 23 mph 1014.1mb 78f
10:50am 20 23 mph 1014.3mb 78f
9:50am 16 18 mph 1014.8mb 78f
8:50am 18 21 mph 1014.3mb 78f
7:50am 14 16 mph 1014mb 77f
6:50am 14 16 mph 1013.5mb 77f
5:50am 14 16 mph 1012.7mb 77f
4:50am 15 16 mph 1012.6mb 77f
3:50am 16 17 mph 1012.8mb 77f
2:50am 15 16 mph 1013.1mb 78f
1:50am 16 18 mph 1013.4mb 78f
12:50am 17 20 mph 1013.8mb 78f
Mon 12/22 11:50pm 16 20 mph 1014.2mb 78f
10:50pm 17 20 mph 1014.5mb 77f
9:50pm 16 17 mph 1014.5mb 77f
8:50pm 14 16 mph 1014.3mb 77f
7:50pm 13 14 mph 1014.4mb 77f
6:50pm 11 13 mph 1013.9mb 77f
5:50pm 11 14 mph 1013.8mb 77f
4:50pm 10 13 mph 1013.7mb 77f
3:50pm 9 10 mph 1013.8mb 77f
2:50pm 11 13 mph 1014mb 77f
1:50pm 14 16 mph 1014.3mb 77f
12:50pm 14 16 mph 1015.2mb 77f
11:50am 16 18 mph 1015.9mb 77f
10:50am 16 18 mph 1016.5mb 77f
9:50am 20 22 mph 1016.5mb 77f
8:50am 16 18 mph 1016.5mb 77f
7:50am 17 18 mph 1015.9mb 76f
6:50am 15 16 mph 1015.8mb 76f
5:50am 15 17 mph 1015.3mb 76f
4:50am 16 17 mph 1015.2mb 77f
3:50am 14 16 mph 1015.5mb 77f
2:50am 13 15 mph 1015.8mb 77f
1:50am 14 15 mph 1016.5mb 77f